createdAt,value
2022-12-03T00:02:18.348Z,0.74
2022-12-03T00:04:45.048Z,0.76
2022-12-03T00:07:11.601Z,1.09
2022-12-03T00:09:38.258Z,1.07
2022-12-03T00:12:05.044Z,1.21
2022-12-03T00:14:31.723Z,0.98
2022-12-03T00:16:58.333Z,1.06
2022-12-03T00:22:08.308Z,1.08
2022-12-03T00:24:34.874Z,0.92
2022-12-03T00:27:01.534Z,0.88
2022-12-03T00:29:28.559Z,1.01
2022-12-03T00:31:55.221Z,0.98
2022-12-03T00:34:22.448Z,0.96
2022-12-03T00:36:49.139Z,1.19
2022-12-03T00:39:15.738Z,0.66
2022-12-03T00:41:48.659Z,1.21
2022-12-03T00:44:15.288Z,0.96
2022-12-03T00:46:42.090Z,1.15
2022-12-03T00:49:09.005Z,1.19
2022-12-03T00:51:36.573Z,1.06
2022-12-03T00:54:05.862Z,1.48
2022-12-03T00:56:32.488Z,0.87
2022-12-03T00:59:01.960Z,1.19
2022-12-03T01:01:28.597Z,1.03
2022-12-03T01:03:55.385Z,1.10
2022-12-03T01:06:21.974Z,1.19
2022-12-03T01:08:49.549Z,1.12
2022-12-03T01:11:34.637Z,1.09
2022-12-03T01:14:01.302Z,1.16
2022-12-03T01:16:27.971Z,0.81
2022-12-03T01:18:54.771Z,0.87
2022-12-03T01:21:21.402Z,0.62
2022-12-03T01:23:48.032Z,0.52
2022-12-03T01:26:15.521Z,0.89
2022-12-03T01:28:42.166Z,0.53
2022-12-03T01:31:27.983Z,1.07
2022-12-03T01:33:54.729Z,1.03
2022-12-03T01:36:22.566Z,0.88
2022-12-03T01:38:49.236Z,0.93
2022-12-03T01:41:20.986Z,1.00
2022-12-03T01:43:48.899Z,1.08
2022-12-03T01:46:19.892Z,1.14
2022-12-03T01:48:48.103Z,0.75
2022-12-03T01:51:15.291Z,0.68
2022-12-03T01:53:43.668Z,0.88
2022-12-03T01:56:16.906Z,1.08
2022-12-03T01:58:44.699Z,0.59
2022-12-03T02:01:15.377Z,0.86
2022-12-03T02:03:42.840Z,0.82
2022-12-03T02:06:18.289Z,1.05
2022-12-03T02:08:45.615Z,1.02
2022-12-03T02:11:27.539Z,1.17
2022-12-03T02:14:02.546Z,1.03
2022-12-03T02:16:30.412Z,0.90
2022-12-03T02:18:58.523Z,0.84
2022-12-03T02:21:41.390Z,1.21
2022-12-03T02:24:19.692Z,0.71
2022-12-03T02:26:46.302Z,1.14
2022-12-03T02:29:15.314Z,0.76
2022-12-03T02:31:42.756Z,0.30
2022-12-03T02:34:13.459Z,0.87
2022-12-03T02:36:40.238Z,0.82
2022-12-03T02:39:07.189Z,0.78
2022-12-03T02:41:54.538Z,0.98
2022-12-03T02:44:21.226Z,0.70
2022-12-03T02:46:47.924Z,0.91
2022-12-03T02:49:17.758Z,0.96
2022-12-03T02:51:44.378Z,0.69
2022-12-03T02:54:11.172Z,0.79
2022-12-03T02:56:38.437Z,0.94
2022-12-03T02:59:05.760Z,0.45
2022-12-03T03:01:40.083Z,0.51
2022-12-03T03:04:07.019Z,0.65
2022-12-03T03:06:36.877Z,0.76
2022-12-03T03:09:04.168Z,0.61
2022-12-03T03:11:31.072Z,0.37
2022-12-03T03:13:57.761Z,0.39
2022-12-03T03:16:28.420Z,0.93
2022-12-03T03:18:55.217Z,0.69
2022-12-03T03:21:21.799Z,0.74
2022-12-03T03:23:50.761Z,0.73
2022-12-03T03:26:17.845Z,0.65
2022-12-03T03:28:47.462Z,0.75
2022-12-03T03:31:17.908Z,0.79
2022-12-03T03:33:47.264Z,0.60
2022-12-03T03:36:15.834Z,0.48
2022-12-03T03:38:42.632Z,0.72
2022-12-03T03:41:10.942Z,0.85
2022-12-03T03:43:41.694Z,0.48
2022-12-03T03:46:09.390Z,0.58
2022-12-03T03:48:36.227Z,0.87
2022-12-03T03:51:08.829Z,0.53
2022-12-03T03:53:42.041Z,0.70
2022-12-03T03:56:10.172Z,0.93
2022-12-03T03:58:37.897Z,0.83
2022-12-03T04:01:04.827Z,0.70
2022-12-03T04:03:31.524Z,0.74
2022-12-03T04:05:58.392Z,0.83
2022-12-03T04:08:24.992Z,0.70
2022-12-03T04:11:10.249Z,0.63
2022-12-03T04:13:36.916Z,0.42
2022-12-03T04:16:03.989Z,0.80
2022-12-03T04:18:51.707Z,0.88
2022-12-03T04:21:39.407Z,0.80
2022-12-03T04:24:07.705Z,0.85
2022-12-03T04:26:56.416Z,0.87
2022-12-03T04:29:23.564Z,1.03
2022-12-03T04:32:08.775Z,0.83
2022-12-03T04:34:56.406Z,0.82
2022-12-03T04:37:23.271Z,0.60
2022-12-03T04:39:53.344Z,0.53
2022-12-03T04:42:23.179Z,0.59
2022-12-03T04:44:50.110Z,0.60
2022-12-03T04:47:21.494Z,0.65
2022-12-03T04:49:50.453Z,0.80
2022-12-03T04:52:19.432Z,0.62
2022-12-03T04:54:46.366Z,0.49
2022-12-03T04:57:13.267Z,0.59
2022-12-03T04:59:40.600Z,0.75
2022-12-03T05:02:07.840Z,0.81
2022-12-03T05:04:36.603Z,0.70
2022-12-03T05:07:03.267Z,1.05
2022-12-03T05:09:29.972Z,1.10
2022-12-03T05:11:56.666Z,0.56
2022-12-03T05:14:23.513Z,0.33
2022-12-03T05:16:50.160Z,0.60
2022-12-03T05:19:16.868Z,0.47
2022-12-03T05:21:43.450Z,0.70
2022-12-03T05:24:10.139Z,0.63
2022-12-03T05:26:39.087Z,0.30
2022-12-03T05:29:05.720Z,0.62
2022-12-03T05:31:32.296Z,0.29
2022-12-03T05:33:59.004Z,0.02
2022-12-03T05:36:25.649Z,0.51
2022-12-03T05:38:52.495Z,0.33
2022-12-03T05:41:39.881Z,0.79
2022-12-03T05:44:18.861Z,-0.07
2022-12-03T05:46:47.092Z,0.19
2022-12-03T05:49:13.726Z,0.43
2022-12-03T05:51:40.391Z,0.39
2022-12-03T05:54:06.986Z,0.51
2022-12-03T05:56:33.660Z,0.43
2022-12-03T05:59:01.066Z,0.50
2022-12-03T06:01:27.703Z,0.48
2022-12-03T06:03:54.408Z,0.64
2022-12-03T06:06:21.119Z,0.31
2022-12-03T06:08:51.755Z,0.29
2022-12-03T06:11:18.412Z,0.42
2022-12-03T06:13:44.978Z,0.33
2022-12-03T06:16:11.752Z,0.18
2022-12-03T06:18:38.452Z,0.71
2022-12-03T06:21:09.059Z,0.45
2022-12-03T06:23:35.963Z,0.43
2022-12-03T06:26:02.554Z,0.45
2022-12-03T06:28:29.198Z,0.62
2022-12-03T06:30:55.922Z,0.45
2022-12-03T06:33:22.620Z,0.10
2022-12-03T06:35:49.189Z,0.13
2022-12-03T06:38:17.938Z,0.10
2022-12-03T06:40:46.660Z,0.18
2022-12-03T06:43:15.990Z,0.36
2022-12-03T06:45:47.507Z,0.20
2022-12-03T06:48:14.830Z,-0.14
2022-12-03T06:50:41.413Z,0.02
2022-12-03T06:53:08.122Z,0.34
2022-12-03T06:55:34.743Z,0.17
2022-12-03T06:58:01.369Z,0.14
2022-12-03T07:00:31.009Z,0.55
2022-12-03T07:02:57.758Z,0.43
2022-12-03T07:05:24.369Z,0.36
2022-12-03T07:07:52.366Z,0.15
2022-12-03T07:10:19.428Z,0.36
2022-12-03T07:12:46.066Z,0.35
2022-12-03T07:15:13.020Z,0.51
2022-12-03T07:17:39.768Z,0.29
2022-12-03T07:20:07.103Z,0.61
2022-12-03T07:22:36.382Z,0.38
2022-12-03T07:25:03.155Z,0.57
2022-12-03T07:27:29.777Z,0.62
2022-12-03T07:29:56.423Z,0.53
2022-12-03T07:32:24.885Z,0.67
2022-12-03T07:34:51.679Z,0.36
2022-12-03T07:37:22.882Z,0.40
2022-12-03T07:39:50.359Z,0.57
2022-12-03T07:42:16.925Z,0.53
2022-12-03T07:44:43.629Z,0.47
2022-12-03T07:47:10.219Z,0.40
2022-12-03T07:49:36.905Z,0.04
2022-12-03T07:52:03.841Z,0.19
2022-12-03T07:54:30.496Z,0.47
2022-12-03T07:57:01.468Z,0.16
2022-12-03T07:59:28.991Z,0.32
2022-12-03T08:01:55.682Z,0.06
2022-12-03T08:04:22.428Z,0.37
2022-12-03T08:06:49.309Z,0.20
2022-12-03T08:09:16.534Z,0.14
2022-12-03T08:11:45.463Z,0.08
2022-12-03T08:14:20.940Z,0.57
2022-12-03T08:16:48.150Z,0.40
2022-12-03T08:19:16.562Z,0.42
2022-12-03T08:21:43.819Z,0.31
2022-12-03T08:24:17.518Z,-0.01
2022-12-03T08:26:47.847Z,0.29
2022-12-03T08:29:19.901Z,0.56
2022-12-03T08:31:52.471Z,0.37
2022-12-03T08:34:20.354Z,0.27
2022-12-03T08:36:50.699Z,0.70
2022-12-03T08:39:31.197Z,0.88
2022-12-03T08:42:42.096Z,0.85
2022-12-03T08:45:40.547Z,1.00
2022-12-03T08:48:25.971Z,1.07
2022-12-03T08:50:58.194Z,0.89
2022-12-03T08:53:27.773Z,0.75
2022-12-03T08:56:02.097Z,0.89
2022-12-03T08:58:42.171Z,1.08
2022-12-03T09:01:08.952Z,0.74
2022-12-03T09:03:38.352Z,0.87
2022-12-03T09:06:05.458Z,0.58
2022-12-03T09:08:32.059Z,0.90
2022-12-03T09:10:58.706Z,1.13
2022-12-03T09:13:25.302Z,1.00
2022-12-03T09:15:54.004Z,0.66
2022-12-03T09:18:20.609Z,0.74
2022-12-03T09:20:47.210Z,0.86
2022-12-03T09:23:13.855Z,0.93
2022-12-03T09:25:40.510Z,0.95
2022-12-03T09:28:07.204Z,0.91
2022-12-03T09:30:34.031Z,1.12
2022-12-03T09:33:00.729Z,1.09
2022-12-03T09:35:27.825Z,0.71
2022-12-03T09:37:54.475Z,0.89
2022-12-03T09:40:24.166Z,1.01
2022-12-03T09:42:51.909Z,1.21
2022-12-03T09:45:19.215Z,1.11
2022-12-03T09:47:52.202Z,1.08
2022-12-03T09:50:25.254Z,1.22
2022-12-03T09:52:55.178Z,1.00
2022-12-03T09:55:24.498Z,0.62
2022-12-03T09:57:52.668Z,0.90
2022-12-03T10:00:23.841Z,0.97
2022-12-03T10:02:52.723Z,0.73
2022-12-03T10:05:23.411Z,1.01
2022-12-03T10:07:53.538Z,1.17
2022-12-03T10:10:23.488Z,1.21
2022-12-03T10:12:52.380Z,0.88
2022-12-03T10:15:23.696Z,1.01
2022-12-03T10:17:53.414Z,0.94
2022-12-03T10:20:22.819Z,0.68
2022-12-03T10:22:49.951Z,0.59
2022-12-03T10:25:21.905Z,0.94
2022-12-03T10:28:00.697Z,0.74
2022-12-03T10:30:28.977Z,0.74
2022-12-03T10:32:58.079Z,1.12
2022-12-03T10:35:37.044Z,1.20
2022-12-03T10:38:06.956Z,1.39
2022-12-03T10:40:39.280Z,1.66
2022-12-03T10:43:35.230Z,1.25
2022-12-03T10:46:04.119Z,0.90
2022-12-03T10:48:31.457Z,1.01
2022-12-03T10:51:09.689Z,0.93
2022-12-03T10:53:40.346Z,1.26
2022-12-03T10:56:08.571Z,0.31
2022-12-03T10:58:37.939Z,1.05
2022-12-03T11:01:19.880Z,0.76
2022-12-03T11:03:49.744Z,1.06
2022-12-03T11:06:19.743Z,0.98
2022-12-03T11:08:56.168Z,1.31
2022-12-03T11:11:29.387Z,0.74
2022-12-03T11:14:00.368Z,0.77
2022-12-03T11:16:39.085Z,1.38
2022-12-03T11:19:12.363Z,1.02
2022-12-03T11:22:06.706Z,1.34
2022-12-03T11:24:35.826Z,1.39
2022-12-03T11:27:02.335Z,0.99
2022-12-03T11:29:49.881Z,1.09
2022-12-03T11:32:35.158Z,1.09
2022-12-03T11:35:01.861Z,0.55
2022-12-03T11:37:28.611Z,0.86
2022-12-03T11:39:55.820Z,0.89
2022-12-03T11:42:28.620Z,1.08
2022-12-03T11:45:04.632Z,1.23
2022-12-03T11:47:41.864Z,1.14
2022-12-03T11:50:26.908Z,1.08
2022-12-03T11:53:11.575Z,1.25
2022-12-03T11:55:41.431Z,0.87
2022-12-03T11:58:29.035Z,0.77
2022-12-03T12:01:00.706Z,0.96
2022-12-03T12:03:46.178Z,1.24
2022-12-03T12:06:16.578Z,0.44
2022-12-03T12:08:52.066Z,0.78
2022-12-03T12:11:40.470Z,0.87
2022-12-03T12:14:12.165Z,1.09
2022-12-03T12:16:51.142Z,1.24
2022-12-03T12:19:42.221Z,1.70
2022-12-03T12:22:30.745Z,1.59
2022-12-03T12:25:00.331Z,1.48
2022-12-03T12:27:37.793Z,1.30
2022-12-03T12:30:20.264Z,1.31
2022-12-03T12:33:05.634Z,1.13
2022-12-03T12:35:36.850Z,1.21
2022-12-03T12:38:06.496Z,1.22
2022-12-03T12:40:37.174Z,0.81
2022-12-03T12:43:14.435Z,1.37
2022-12-03T12:45:45.319Z,1.12
2022-12-03T12:48:11.765Z,1.28
2022-12-03T12:50:39.090Z,1.09
2022-12-03T12:53:28.173Z,1.27
2022-12-03T12:56:31.455Z,1.18
2022-12-03T12:59:24.448Z,1.23
2022-12-03T13:01:53.299Z,1.37
2022-12-03T13:04:22.735Z,1.54
2022-12-03T13:06:53.206Z,1.09
2022-12-03T13:09:22.886Z,1.08
2022-12-03T13:11:58.527Z,1.42
2022-12-03T13:14:36.655Z,0.63
2022-12-03T13:17:19.673Z,1.30
2022-12-03T13:19:49.538Z,0.57
2022-12-03T13:22:25.615Z,0.72
2022-12-03T13:24:56.039Z,1.09
2022-12-03T13:27:29.717Z,1.16
2022-12-03T13:29:56.581Z,0.62
2022-12-03T13:32:27.672Z,1.12
2022-12-03T13:35:04.574Z,1.11
2022-12-03T13:37:31.791Z,0.86
2022-12-03T13:40:09.260Z,0.73
2022-12-03T13:42:41.658Z,1.15
2022-12-03T13:45:14.768Z,1.52
2022-12-03T13:47:42.378Z,0.97
2022-12-03T13:50:38.119Z,0.96
2022-12-03T13:53:34.086Z,0.63
2022-12-03T14:00:16.456Z,0.67
2022-12-03T14:02:43.327Z,1.00
2022-12-03T14:05:10.645Z,1.30
2022-12-03T14:07:38.630Z,0.93
2022-12-03T14:10:07.151Z,0.87
2022-12-03T14:12:40.983Z,0.77
2022-12-03T14:15:10.757Z,0.92
2022-12-03T14:17:37.566Z,0.86
2022-12-03T14:20:04.848Z,0.74
2022-12-03T14:22:31.479Z,0.82
2022-12-03T14:24:58.353Z,0.85
2022-12-03T14:27:25.217Z,1.13
2022-12-03T14:29:54.783Z,1.33
2022-12-03T14:32:21.637Z,1.09
2022-12-03T14:34:49.209Z,0.95
2022-12-03T14:37:15.906Z,1.29
2022-12-03T14:39:44.716Z,1.24
2022-12-03T14:42:14.293Z,1.44
2022-12-03T14:44:48.048Z,1.18
2022-12-03T14:47:16.693Z,0.89
2022-12-03T14:49:43.578Z,0.96
2022-12-03T14:52:12.542Z,0.71
2022-12-03T14:54:42.479Z,1.08
2022-12-03T14:57:12.560Z,0.96
2022-12-03T14:59:40.834Z,0.96
2022-12-03T15:02:08.667Z,0.90
2022-12-03T15:04:37.205Z,0.95
2022-12-03T15:07:03.964Z,0.93
2022-12-03T15:09:30.551Z,0.86
2022-12-03T15:11:57.292Z,0.97
2022-12-03T15:14:23.880Z,1.03
2022-12-03T15:16:50.669Z,1.16
2022-12-03T15:19:17.336Z,1.16
2022-12-03T15:21:44.055Z,0.67
2022-12-03T15:24:10.806Z,1.05
2022-12-03T15:26:37.494Z,1.25
2022-12-03T15:29:06.939Z,1.22
2022-12-03T15:31:33.769Z,0.96
2022-12-03T15:34:00.459Z,1.04
2022-12-03T15:36:27.154Z,0.89
2022-12-03T15:38:53.762Z,0.89
2022-12-03T15:41:21.365Z,0.80
2022-12-03T15:43:57.216Z,1.40
2022-12-03T15:46:24.538Z,0.89
2022-12-03T15:48:51.205Z,0.88
2022-12-03T15:51:17.857Z,0.92
2022-12-03T15:53:44.531Z,0.99
2022-12-03T15:56:12.130Z,1.00
2022-12-03T15:58:39.614Z,1.31
2022-12-03T16:01:06.749Z,1.21
2022-12-03T16:03:36.780Z,0.86
2022-12-03T16:06:03.588Z,0.75
2022-12-03T16:08:33.007Z,1.10
2022-12-03T16:10:59.678Z,0.99
2022-12-03T16:13:27.026Z,0.72
2022-12-03T16:15:53.705Z,0.86
2022-12-03T16:18:20.402Z,0.80
2022-12-03T16:20:49.174Z,0.59
2022-12-03T16:23:15.787Z,0.64
2022-12-03T16:25:42.420Z,0.81
2022-12-03T16:28:09.007Z,1.05
2022-12-03T16:30:36.434Z,0.61
2022-12-03T16:33:03.125Z,0.67
2022-12-03T16:35:30.025Z,1.00
2022-12-03T16:37:56.685Z,0.94
2022-12-03T16:40:25.406Z,0.88
2022-12-03T16:42:54.069Z,1.13
2022-12-03T16:45:29.857Z,0.94
2022-12-03T16:47:56.518Z,0.91
2022-12-03T16:50:29.452Z,1.11
2022-12-03T16:52:56.829Z,0.81
2022-12-03T16:55:23.444Z,0.96
2022-12-03T16:57:53.289Z,1.08
2022-12-03T17:00:21.984Z,0.94
2022-12-03T17:02:48.828Z,0.89
2022-12-03T17:05:15.609Z,1.03
2022-12-03T17:07:42.320Z,0.63
2022-12-03T17:10:09.545Z,0.78
2022-12-03T17:13:07.188Z,0.66
2022-12-03T17:15:23.011Z,0.87
2022-12-03T17:17:49.597Z,0.46
2022-12-03T17:20:17.803Z,0.80
2022-12-03T17:25:25.340Z,0.80
2022-12-03T17:27:53.123Z,0.62
2022-12-03T17:30:20.065Z,0.88
2022-12-03T17:32:46.889Z,0.97
2022-12-03T17:35:13.549Z,1.03
2022-12-03T17:37:40.121Z,1.08
2022-12-03T17:40:09.514Z,1.33
2022-12-03T17:42:36.314Z,1.27
2022-12-03T17:45:03.491Z,1.19
2022-12-03T17:47:32.423Z,1.16
2022-12-03T17:50:01.125Z,1.21
2022-12-03T17:52:27.713Z,1.04
2022-12-03T17:55:13.166Z,0.90
2022-12-03T17:57:43.333Z,0.85
2022-12-03T18:00:10.607Z,0.80
2022-12-03T18:02:41.739Z,1.10
2022-12-03T18:05:08.861Z,0.77
2022-12-03T18:07:35.514Z,0.56
2022-12-03T18:10:02.349Z,0.88
2022-12-03T18:12:28.925Z,0.85
2022-12-03T18:14:55.577Z,0.85
2022-12-03T18:17:25.874Z,0.78
2022-12-03T18:19:52.851Z,0.90
2022-12-03T18:22:19.963Z,0.70
2022-12-03T18:24:51.551Z,0.94
2022-12-03T18:27:20.815Z,0.77
2022-12-03T18:29:47.524Z,0.49
2022-12-03T18:32:27.848Z,0.56
2022-12-03T18:34:58.400Z,1.03
2022-12-03T18:37:32.647Z,0.82
2022-12-03T18:39:59.880Z,0.83
2022-12-03T18:42:26.974Z,0.96
2022-12-03T18:44:55.795Z,1.04
2022-12-03T18:47:24.899Z,0.86
2022-12-03T18:49:51.947Z,0.95
2022-12-03T18:52:22.068Z,1.08
2022-12-03T18:54:51.741Z,1.01
2022-12-03T18:57:18.350Z,0.86
2022-12-03T18:59:45.088Z,0.91
2022-12-03T19:02:54.256Z,1.16
2022-12-03T19:05:11.096Z,0.97
2022-12-03T19:07:37.845Z,1.11
2022-12-03T19:10:05.014Z,1.03
2022-12-03T19:12:32.666Z,1.09
2022-12-03T19:15:02.742Z,1.24
2022-12-03T19:17:31.454Z,0.82
2022-12-03T19:19:58.321Z,0.95
2022-12-03T19:22:25.086Z,0.86
2022-12-03T19:24:51.703Z,1.03
2022-12-03T19:27:18.704Z,0.81
2022-12-03T19:29:48.927Z,0.79
2022-12-03T19:32:15.700Z,0.91
2022-12-03T19:34:42.311Z,0.64
2022-12-03T19:37:08.902Z,0.82
2022-12-03T19:39:35.470Z,0.85
2022-12-03T19:42:02.240Z,0.90
2022-12-03T19:44:28.820Z,0.77
2022-12-03T19:46:59.274Z,0.69
2022-12-03T19:49:26.564Z,0.82
2022-12-03T19:51:53.205Z,1.05
2022-12-03T19:54:19.925Z,0.66
2022-12-03T19:56:46.582Z,0.35
2022-12-03T19:59:14.182Z,0.65
2022-12-03T20:01:43.108Z,1.04
2022-12-03T20:04:11.440Z,0.77
2022-12-03T20:06:39.112Z,0.81
2022-12-03T20:09:08.831Z,0.90
2022-12-03T20:11:35.975Z,1.15
2022-12-03T20:14:06.926Z,0.73
2022-12-03T20:16:34.789Z,0.99
2022-12-03T20:19:04.594Z,0.94
2022-12-03T20:21:33.249Z,0.60
2022-12-03T20:23:59.919Z,0.82
2022-12-03T20:26:27.663Z,0.62
2022-12-03T20:28:55.100Z,0.56
2022-12-03T20:31:24.322Z,0.76
2022-12-03T20:33:54.011Z,0.90
2022-12-03T20:36:22.705Z,0.70
2022-12-03T20:38:54.644Z,0.62
2022-12-03T20:41:21.499Z,0.58
2022-12-03T20:43:48.499Z,0.65
2022-12-03T20:46:18.287Z,0.52
2022-12-03T20:48:48.109Z,0.63
2022-12-03T20:51:17.467Z,0.56
2022-12-03T20:53:45.283Z,0.77
2022-12-03T20:56:26.398Z,0.87
2022-12-03T20:58:53.739Z,0.69
2022-12-03T21:01:23.343Z,0.97
2022-12-03T21:03:51.518Z,0.84
2022-12-03T21:06:18.324Z,0.61
2022-12-03T21:08:46.162Z,0.99
2022-12-03T21:11:18.871Z,1.07
2022-12-03T21:13:46.275Z,1.02
2022-12-03T21:16:16.475Z,0.87
2022-12-03T21:18:43.541Z,0.95
2022-12-03T21:21:17.007Z,0.71
2022-12-03T21:23:44.651Z,0.76
2022-12-03T21:26:15.220Z,0.67
2022-12-03T21:28:46.553Z,0.64
2022-12-03T21:31:25.781Z,0.59
2022-12-03T21:33:54.236Z,0.92
2022-12-03T21:36:25.168Z,0.89
2022-12-03T21:38:52.357Z,0.88
2022-12-03T21:41:19.147Z,0.63
2022-12-03T21:43:45.843Z,0.42
2022-12-03T21:47:10.098Z,0.52
2022-12-03T21:49:02.084Z,0.64
2022-12-03T21:51:28.746Z,0.93
2022-12-03T21:53:55.369Z,0.96
2022-12-03T21:56:24.415Z,0.79
2022-12-03T21:58:53.242Z,0.98
2022-12-03T22:01:22.705Z,0.99
2022-12-03T22:03:50.221Z,0.98
2022-12-03T22:06:17.759Z,1.09
2022-12-03T22:08:44.543Z,1.03
2022-12-03T22:11:15.037Z,1.04
2022-12-03T22:13:44.876Z,1.05
2022-12-03T22:16:17.079Z,0.74
2022-12-03T22:18:44.079Z,0.61
2022-12-03T22:21:16.043Z,1.15
2022-12-03T22:23:45.867Z,0.80
2022-12-03T22:26:15.055Z,1.04
2022-12-03T22:28:46.955Z,1.08
2022-12-03T22:31:14.837Z,1.01
2022-12-03T22:33:42.212Z,1.25
2022-12-03T22:36:17.984Z,1.33
2022-12-03T22:38:49.935Z,1.30
2022-12-03T22:41:19.725Z,1.15
2022-12-03T22:43:49.840Z,1.26
2022-12-03T22:46:20.087Z,1.20
2022-12-03T22:48:47.218Z,1.09
2022-12-03T22:51:16.321Z,1.41
2022-12-03T22:53:46.490Z,1.56
2022-12-03T22:56:13.521Z,1.32
2022-12-03T22:58:42.723Z,0.93
2022-12-03T23:01:09.463Z,0.65
2022-12-03T23:03:36.824Z,0.75
2022-12-03T23:06:10.796Z,0.82
2022-12-03T23:08:37.845Z,0.85
2022-12-03T23:11:04.410Z,0.60
2022-12-03T23:13:31.097Z,0.76
2022-12-03T23:15:58.530Z,0.57
2022-12-03T23:18:25.215Z,0.57
2022-12-03T23:20:54.363Z,0.33
2022-12-03T23:23:23.079Z,0.98
2022-12-03T23:26:11.026Z,1.06
2022-12-03T23:28:40.997Z,0.76
2022-12-03T23:31:16.920Z,1.23
2022-12-03T23:33:51.300Z,1.06
2022-12-03T23:36:19.104Z,0.94
2022-12-03T23:38:45.640Z,1.13
2022-12-03T23:41:15.519Z,0.86
2022-12-03T23:43:42.990Z,0.89
2022-12-03T23:46:15.365Z,0.99
2022-12-03T23:48:42.951Z,0.68
2022-12-03T23:51:19.033Z,1.04
2022-12-03T23:53:46.067Z,0.49
2022-12-03T23:56:15.779Z,0.45
2022-12-03T23:58:42.982Z,0.72
